Jenera, OH (45841)

6:41 PM EST on March 03, 2015 (GMT -0500)
KOHARLIN2 | Change Station
CLOSE
Current Station
Personal Weather Station
Location: ARLINGTON, OH
Elevation: 850 ft
Nearby Weather Stations

Elev 850 ft 40.87 °N, 83.66 °W | Updated 1 second ago

Overcast
Overcast
39.2 °F
Feels Like 32 °F
N
11.0
Wind Variable Wind from WSW
Gusts 18.0 mph

Today
High -- | Low -- °F
--% Chance of Precip.
Yesterday
High -- | Low -- °F
Precip. -- in
7:06 AM 6:28 PM
Waxing Gibbous, 97% visible
Pressure 29.66 in
Visibility 4.0 miles
Clouds Overcast 700 ft
Windchill 32 °F
Dew Point 37 °F
Humidity 91%
Rainfall 0.02 in
Snow Depth Not available.
UV 0 out of 12
Pollen .40 out of 12
Air Quality Not available.
Flu Activity Not available.
METAR KFDY 032253Z AUTO 24018KT 4SM -RA BR OVC007 04/03 A2965 RMK AO2 RAB12 CIG 005V009 SLP043 P0000 T00440028

More Conditions Fewer Conditions

Pressure 29.66 in
Visibility 4.0 miles
Clouds Overcast 700 ft
Windchill 32 °F
Dew Point 37 °F
Humidity 91%
Rainfall 0.02 in
Snow Depth Not available.
UV 0 out of 12
Pollen .40 out of 12
Air Quality Not available.
Flu Activity Not available.
METAR KFDY 032253Z AUTO 24018KT 4SM -RA BR OVC007 04/03 A2965 RMK AO2 RAB12 CIG 005V009 SLP043 P0000 T00440028

More Conditions Fewer Conditions

10-Day Weather Forecast

Almanac

Astronomy

Mar. 03, 2015 Rise Set
Actual Time
Civil Twilight
Nautical Twilight
Astronomical Twilight
Moon
Length of Visible Light
Length of Day
Tomorrow will be .
, % of the Moon is Illuminated

Today's Extremes

State Highs State Lows

Community

WunderPhotos

Upload Photos

1,802,305 photos uploaded!

WunderBlogs® & News

Nearby

Air Quality

  Air Quality AQ Index Pollutant
Not available.

Snow Depth

Station Depth Elevation

Earthquake Activity

City Distance Mag. Time & Date
Minimum magnitude displayed is 2.5.

Coastal Water Temperatures

Place Temperature

Nearby Weather Stations